createdAt,value
2019-04-20T00:02:27.494Z,82.55
2019-04-20T00:05:01.176Z,81.85
2019-04-20T00:07:36.370Z,80.50
2019-04-20T00:10:15.065Z,80.37
2019-04-20T00:13:01.015Z,80.69
2019-04-20T00:15:18.106Z,81.25
2019-04-20T00:17:56.150Z,81.01
2019-04-20T00:20:29.664Z,79.99
2019-04-20T00:23:22.663Z,80.29
2019-04-20T00:26:26.799Z,81.20
2019-04-20T00:29:06.987Z,80.89
2019-04-20T00:31:42.023Z,81.86
2019-04-20T00:34:08.972Z,82.22
2019-04-20T00:36:34.890Z,82.44
2019-04-20T00:39:12.838Z,82.46
2019-04-20T00:41:51.743Z,81.91
2019-04-20T00:44:25.149Z,81.81
2019-04-20T00:47:04.899Z,82.30
2019-04-20T00:49:47.278Z,83.11
2019-04-20T00:52:30.742Z,84.58
2019-04-20T00:54:37.428Z,85.04
2019-04-20T00:57:21.755Z,84.80
2019-04-20T01:00:06.178Z,85.00
2019-04-20T01:02:33.287Z,84.34
2019-04-20T01:05:11.117Z,83.50
2019-04-20T01:07:52.029Z,83.85
2019-04-20T01:10:21.605Z,84.59
2019-04-20T01:13:04.356Z,84.46
2019-04-20T01:15:38.797Z,84.78
2019-04-20T01:18:03.812Z,85.36
2019-04-20T01:20:38.942Z,85.83
2019-04-20T01:23:16.010Z,85.91
2019-04-20T01:25:51.991Z,86.14
2019-04-20T01:28:37.464Z,86.44
2019-04-20T01:31:09.218Z,85.73
2019-04-20T01:33:42.452Z,85.62
2019-04-20T01:36:26.586Z,85.97
2019-04-20T01:38:55.354Z,86.38
2019-04-20T01:41:14.316Z,85.74
2019-04-20T01:43:48.099Z,85.29
2019-04-20T01:46:23.982Z,85.49
2019-04-20T01:49:00.000Z,85.30
2019-04-20T01:51:44.106Z,84.32
2019-04-20T01:54:24.519Z,84.72
2019-04-20T01:56:54.904Z,85.47
2019-04-20T01:59:40.279Z,85.91
2019-04-20T02:02:35.529Z,85.69
2019-04-20T02:05:16.604Z,86.39
2019-04-20T02:07:51.054Z,86.55
2019-04-20T02:10:33.247Z,86.74
2019-04-20T02:13:00.175Z,86.75
2019-04-20T02:15:38.626Z,87.17
2019-04-20T02:18:20.526Z,87.45
2019-04-20T02:20:59.847Z,86.86
2019-04-20T02:23:29.579Z,86.61
2019-04-20T02:25:50.143Z,87.10
2019-04-20T02:28:56.598Z,87.26
2019-04-20T02:34:23.991Z,87.87
2019-04-20T02:39:37.566Z,87.45
2019-04-20T02:44:52.456Z,88.49
2019-04-20T02:47:21.705Z,88.81
2019-04-20T02:49:50.939Z,89.19
2019-04-20T02:52:33.500Z,88.40
2019-04-20T02:55:04.132Z,87.28
2019-04-20T02:57:44.306Z,88.73
2019-04-20T03:02:27.237Z,87.11
2019-04-20T03:05:00.208Z,88.58
2019-04-20T03:07:34.456Z,88.58
2019-04-20T03:10:14.079Z,89.34
2019-04-20T03:12:53.706Z,89.01
2019-04-20T03:15:30.298Z,88.80
2019-04-20T03:18:03.549Z,88.56
2019-04-20T03:20:41.822Z,87.79
2019-04-20T03:23:26.109Z,88.52
2019-04-20T03:26:12.762Z,89.05
2019-04-20T03:29:03.906Z,89.14
2019-04-20T03:32:33.051Z,88.42
2019-04-20T03:34:47.541Z,89.29
2019-04-20T03:37:04.408Z,88.93
2019-04-20T03:39:28.692Z,88.56
2019-04-20T03:41:49.316Z,89.51
2019-04-20T03:44:24.396Z,88.07
2019-04-20T03:46:59.708Z,88.92
2019-04-20T03:49:54.804Z,88.32
2019-04-20T03:52:32.831Z,88.24
2019-04-20T03:55:35.655Z,88.93
2019-04-20T03:58:28.505Z,89.25
2019-04-20T04:01:22.801Z,89.16
2019-04-20T04:04:05.259Z,89.34
2019-04-20T04:06:26.481Z,89.59
2019-04-20T04:09:02.411Z,89.96
2019-04-20T04:11:44.486Z,89.85
2019-04-20T04:14:00.852Z,89.42
2019-04-20T04:16:41.843Z,89.45
2019-04-20T04:19:16.409Z,89.25
2019-04-20T04:22:00.794Z,89.00
2019-04-20T04:24:30.511Z,88.59
2019-04-20T04:27:05.695Z,88.44
2019-04-20T04:29:47.138Z,89.09
2019-04-20T04:32:37.540Z,89.51
2019-04-20T04:34:57.245Z,89.09
2019-04-20T04:37:35.482Z,89.24
2019-04-20T04:40:14.840Z,89.40
2019-04-20T04:42:45.502Z,89.46
2019-04-20T04:45:01.610Z,89.47
2019-04-20T04:47:30.439Z,89.63
2019-04-20T04:50:10.769Z,89.13
2019-04-20T04:52:45.390Z,89.10
2019-04-20T04:55:28.605Z,88.50
2019-04-20T04:57:47.386Z,89.09
2019-04-20T05:00:26.207Z,89.34
2019-04-20T05:03:02.006Z,88.73
2019-04-20T05:06:24.463Z,88.86
2019-04-20T05:08:47.361Z,89.29
2019-04-20T05:11:17.931Z,89.28
2019-04-20T05:13:59.694Z,88.69
2019-04-20T05:16:45.129Z,88.98
2019-04-20T05:19:26.070Z,88.87
2019-04-20T05:22:17.802Z,89.10
2019-04-20T05:25:12.889Z,88.77
2019-04-20T05:27:52.539Z,88.79
2019-04-20T05:30:09.835Z,87.96
2019-04-20T05:32:52.470Z,88.47
2019-04-20T05:35:36.447Z,88.81
2019-04-20T05:38:12.123Z,88.13
2019-04-20T05:40:49.000Z,87.89
2019-04-20T05:43:27.574Z,88.61
2019-04-20T05:45:58.682Z,87.85
2019-04-20T05:48:44.214Z,88.21
2019-04-20T05:51:12.141Z,85.68
2019-04-20T05:53:45.465Z,85.59
2019-04-20T05:56:26.715Z,85.22
2019-04-20T05:58:57.950Z,85.85
2019-04-20T06:01:31.804Z,86.05
2019-04-20T06:04:01.610Z,84.05
2019-04-20T06:06:45.112Z,82.64
2019-04-20T06:09:20.979Z,81.46
2019-04-20T06:12:02.952Z,81.33
2019-04-20T06:14:40.036Z,79.61
2019-04-20T06:17:49.298Z,80.15
2019-04-20T06:20:26.887Z,79.04
2019-04-20T06:23:09.412Z,78.30
2019-04-20T06:28:48.890Z,76.46
2019-04-20T06:31:30.110Z,74.10
2019-04-20T06:40:30.694Z,68.07
2019-04-20T06:45:44.442Z,65.50
2019-04-20T06:48:22.125Z,61.88
2019-04-20T06:50:44.754Z,65.04
2019-04-20T06:53:46.579Z,62.71
2019-04-20T06:56:27.676Z,61.94
2019-04-20T06:59:00.080Z,61.92
2019-04-20T07:01:37.238Z,63.39
2019-04-20T07:04:27.815Z,62.58
2019-04-20T07:09:22.015Z,60.14
2019-04-20T07:11:50.615Z,59.52
2019-04-20T07:14:08.345Z,60.26
2019-04-20T07:17:31.697Z,58.39
2019-04-20T07:19:58.882Z,59.49
2019-04-20T07:25:07.644Z,58.08
2019-04-20T07:27:50.828Z,57.21
2019-04-20T07:30:19.066Z,56.16
2019-04-20T07:33:18.658Z,52.85
2019-04-20T07:35:30.484Z,54.90
2019-04-20T07:38:25.576Z,47.79
2019-04-20T07:40:38.301Z,50.48
2019-04-20T07:43:07.903Z,44.59
2019-04-20T07:45:49.085Z,44.45
2019-04-20T07:48:21.205Z,44.48
2019-04-20T07:50:53.372Z,41.92
2019-04-20T07:53:30.274Z,43.24
2019-04-20T07:56:17.637Z,40.05
2019-04-20T07:58:30.491Z,41.59
2019-04-20T08:01:31.705Z,45.41
2019-04-20T08:04:04.041Z,43.08
2019-04-20T08:06:26.392Z,39.95
2019-04-20T08:09:10.637Z,40.77
2019-04-20T08:11:55.188Z,40.05
2019-04-20T08:14:28.583Z,44.24
2019-04-20T08:19:33.522Z,39.32
2019-04-20T08:22:09.518Z,39.32
2019-04-20T08:24:37.390Z,39.88
2019-04-20T08:27:07.616Z,38.19
2019-04-20T08:29:54.282Z,41.23
2019-04-20T08:32:38.999Z,40.17
2019-04-20T08:35:23.136Z,41.64
2019-04-20T08:38:00.864Z,43.23
2019-04-20T08:40:25.455Z,43.42
2019-04-20T08:43:16.866Z,39.82
2019-04-20T08:45:42.031Z,38.88
2019-04-20T08:48:18.943Z,40.67
2019-04-20T08:50:45.303Z,40.07
2019-04-20T08:53:27.563Z,37.93
2019-04-20T08:55:49.154Z,37.57
2019-04-20T08:58:11.423Z,38.63
2019-04-20T09:00:51.513Z,42.04
2019-04-20T09:03:25.378Z,41.20
2019-04-20T09:06:03.543Z,40.09
2019-04-20T09:08:42.255Z,36.69
2019-04-20T09:11:19.705Z,38.94
2019-04-20T09:13:43.462Z,40.76
2019-04-20T09:16:13.160Z,37.95
2019-04-20T09:18:54.744Z,40.66
2019-04-20T09:21:29.720Z,37.19
2019-04-20T09:24:22.870Z,38.32
2019-04-20T09:26:47.751Z,43.92
2019-04-20T09:29:16.014Z,40.78
2019-04-20T09:31:51.884Z,36.74
2019-04-20T09:34:43.693Z,41.09
2019-04-20T09:37:29.635Z,35.30
2019-04-20T09:40:25.578Z,36.15
2019-04-20T09:42:57.294Z,38.99
2019-04-20T09:45:40.965Z,36.87
2019-04-20T09:48:15.758Z,38.39
2019-04-20T09:51:04.768Z,36.70
2019-04-20T09:53:44.115Z,40.75
2019-04-20T09:56:38.592Z,36.73
2019-04-20T09:59:28.376Z,37.53
2019-04-20T10:02:44.578Z,32.22
2019-04-20T10:05:17.753Z,31.08
2019-04-20T10:07:55.970Z,33.47
2019-04-20T10:10:33.382Z,30.26
2019-04-20T10:13:00.552Z,34.17
2019-04-20T10:15:33.841Z,29.99
2019-04-20T10:18:07.887Z,29.31
2019-04-20T10:20:42.284Z,29.38
2019-04-20T10:23:16.447Z,32.21
2019-04-20T10:25:50.824Z,29.87
2019-04-20T10:28:23.873Z,29.27
2019-04-20T10:30:57.322Z,29.03
2019-04-20T10:33:31.430Z,30.79
2019-04-20T10:36:05.744Z,33.70
2019-04-20T10:38:38.698Z,32.56
2019-04-20T10:41:21.569Z,30.86
2019-04-20T10:43:46.970Z,31.82
2019-04-20T10:46:20.738Z,31.72
2019-04-20T10:48:56.108Z,32.75
2019-04-20T10:51:29.526Z,29.50
2019-04-20T10:54:02.586Z,30.88
2019-04-20T10:56:35.390Z,33.21
2019-04-20T10:59:09.680Z,31.20
2019-04-20T11:01:43.424Z,31.78
2019-04-20T11:04:16.737Z,30.27
2019-04-20T11:06:50.339Z,29.45
2019-04-20T11:09:24.768Z,32.10
2019-04-20T11:11:58.710Z,32.94
2019-04-20T11:14:36.362Z,30.50
2019-04-20T11:17:06.743Z,28.07
2019-04-20T11:19:39.232Z,31.28
2019-04-20T11:22:12.601Z,28.75
2019-04-20T11:24:48.157Z,29.31
2019-04-20T11:27:22.467Z,29.33
2019-04-20T11:29:56.059Z,25.51
2019-04-20T11:32:28.838Z,30.06
2019-04-20T11:35:11.066Z,27.30
2019-04-20T11:37:37.319Z,34.38
2019-04-20T11:40:10.985Z,25.11
2019-04-20T11:42:43.962Z,27.15
2019-04-20T11:45:18.341Z,24.69
2019-04-20T11:47:51.631Z,28.62
2019-04-20T11:50:25.271Z,21.27
2019-04-20T11:52:59.318Z,24.85
2019-04-20T11:55:32.245Z,24.27
2019-04-20T11:58:05.875Z,25.98
2019-04-20T12:00:55.287Z,26.36
2019-04-20T12:03:29.272Z,25.02
2019-04-20T12:05:59.748Z,23.71
2019-04-20T12:08:32.711Z,28.36
2019-04-20T12:11:21.376Z,21.34
2019-04-20T12:13:40.710Z,22.06
2019-04-20T12:16:13.944Z,30.09
2019-04-20T12:18:48.245Z,24.87
2019-04-20T12:21:21.304Z,22.56
2019-04-20T12:23:54.463Z,26.27
2019-04-20T12:26:28.964Z,25.12
2019-04-20T12:29:01.984Z,25.92
2019-04-20T12:31:35.649Z,25.00
2019-04-20T12:34:08.738Z,25.18
2019-04-20T12:36:42.810Z,26.31
2019-04-20T12:39:17.019Z,23.78
2019-04-20T12:41:56.101Z,25.95
2019-04-20T12:44:25.798Z,22.47
2019-04-20T12:46:59.638Z,24.42
2019-04-20T12:49:33.650Z,25.33
2019-04-20T12:52:08.298Z,27.13
2019-04-20T12:54:44.248Z,22.31
2019-04-20T12:57:16.624Z,24.05
2019-04-20T12:59:51.247Z,22.04
2019-04-20T13:02:25.137Z,27.49
2019-04-20T13:04:59.441Z,22.55
2019-04-20T13:07:41.612Z,23.16
2019-04-20T13:10:09.837Z,27.33
2019-04-20T13:13:10.303Z,22.77
2019-04-20T13:16:02.608Z,22.74
2019-04-20T13:18:41.227Z,23.76
2019-04-20T13:21:14.428Z,24.81
2019-04-20T13:23:47.121Z,23.71
2019-04-20T13:26:19.483Z,21.79
2019-04-20T13:28:52.908Z,20.67
2019-04-20T13:31:26.127Z,21.99
2019-04-20T13:33:59.270Z,23.72
2019-04-20T13:36:32.558Z,21.56
2019-04-20T13:39:08.231Z,22.88
2019-04-20T13:41:42.116Z,21.04
2019-04-20T13:44:15.762Z,20.78
2019-04-20T13:46:49.208Z,22.89
2019-04-20T13:49:22.939Z,19.53
2019-04-20T13:51:57.052Z,21.49
2019-04-20T13:54:30.014Z,22.18
2019-04-20T13:57:03.723Z,21.32
2019-04-20T13:59:41.931Z,26.24
2019-04-20T14:02:34.777Z,22.74
2019-04-20T14:05:08.899Z,18.74
2019-04-20T14:07:42.323Z,19.93
2019-04-20T14:10:15.708Z,18.23
2019-04-20T14:12:57.232Z,21.85
2019-04-20T14:15:23.258Z,22.02
2019-04-20T14:17:57.273Z,19.84
2019-04-20T14:20:30.254Z,21.64
2019-04-20T14:23:03.244Z,20.98
2019-04-20T14:25:36.749Z,21.44
2019-04-20T14:28:11.223Z,20.18
2019-04-20T14:30:44.219Z,17.68
2019-04-20T14:33:17.351Z,20.20
2019-04-20T14:35:50.650Z,21.61
2019-04-20T14:38:24.303Z,22.16
2019-04-20T14:40:58.143Z,21.10
2019-04-20T14:43:33.505Z,19.42
2019-04-20T14:46:06.325Z,18.94
2019-04-20T14:48:40.591Z,20.58
2019-04-20T14:51:14.598Z,23.26
2019-04-20T14:53:47.518Z,20.01
2019-04-20T14:56:20.497Z,22.73
2019-04-20T14:59:01.865Z,22.67
2019-04-20T15:01:44.836Z,23.09
2019-04-20T15:04:21.225Z,23.69
2019-04-20T15:06:52.667Z,23.64
2019-04-20T15:09:26.689Z,23.79
2019-04-20T15:12:00.947Z,22.26
2019-04-20T15:14:34.608Z,22.02
2019-04-20T15:17:08.949Z,24.01
2019-04-20T15:20:03.763Z,22.36
2019-04-20T15:22:35.910Z,21.85
2019-04-20T15:25:09.661Z,20.98
2019-04-20T15:27:46.075Z,21.58
2019-04-20T15:30:18.380Z,21.44
2019-04-20T15:32:52.444Z,19.76
2019-04-20T15:35:26.306Z,23.58
2019-04-20T15:38:00.481Z,20.20
2019-04-20T15:40:33.506Z,20.62
2019-04-20T15:43:12.445Z,20.38
2019-04-20T15:45:41.291Z,19.55
2019-04-20T15:48:14.364Z,18.62
2019-04-20T15:50:47.840Z,20.72
2019-04-20T15:53:23.890Z,21.07
2019-04-20T15:55:57.608Z,20.07
2019-04-20T15:58:30.529Z,20.14
2019-04-20T16:01:08.261Z,20.42
2019-04-20T16:03:47.651Z,22.00
2019-04-20T16:06:21.336Z,21.68
2019-04-20T16:08:56.566Z,20.74
2019-04-20T16:11:30.794Z,21.54
2019-04-20T16:14:05.380Z,21.53
2019-04-20T16:16:38.708Z,21.00
2019-04-20T16:19:25.826Z,21.97
2019-04-20T16:21:47.790Z,20.85
2019-04-20T16:24:22.527Z,22.19
2019-04-20T16:27:27.672Z,21.90
2019-04-20T16:30:01.839Z,21.62
2019-04-20T16:32:36.449Z,23.39
2019-04-20T16:35:10.916Z,22.65
2019-04-20T16:37:44.404Z,23.65
2019-04-20T16:40:17.785Z,24.72
2019-04-20T16:42:52.061Z,26.53
2019-04-20T16:45:25.320Z,25.78
2019-04-20T16:47:59.728Z,25.73
2019-04-20T16:50:33.118Z,26.70
2019-04-20T16:53:06.649Z,27.88
2019-04-20T16:55:40.935Z,27.36
2019-04-20T16:58:13.947Z,27.28
2019-04-20T17:00:47.673Z,27.91
2019-04-20T17:03:24.202Z,28.96
2019-04-20T17:05:55.931Z,33.59
2019-04-20T17:08:29.239Z,31.12
2019-04-20T17:11:03.375Z,29.38
2019-04-20T17:13:43.439Z,31.22
2019-04-20T17:16:10.853Z,29.53
2019-04-20T17:18:48.230Z,30.20
2019-04-20T17:21:25.255Z,32.13
2019-04-20T17:23:57.431Z,31.90
2019-04-20T17:26:45.251Z,32.82
2019-04-20T17:29:22.297Z,32.72
2019-04-20T17:32:15.811Z,34.74
2019-04-20T17:35:05.996Z,33.64
2019-04-20T17:37:24.624Z,36.84
2019-04-20T17:40:19.021Z,36.82
2019-04-20T17:42:46.173Z,35.19
2019-04-20T17:45:14.186Z,35.38
2019-04-20T17:47:59.607Z,35.80
2019-04-20T17:50:32.463Z,36.69
2019-04-20T17:53:06.126Z,35.96
2019-04-20T17:55:41.029Z,36.33
2019-04-20T17:58:12.104Z,38.68
2019-04-20T18:01:28.210Z,36.17
2019-04-20T18:04:24.511Z,39.22
2019-04-20T18:06:45.392Z,40.33
2019-04-20T18:09:33.224Z,39.85
2019-04-20T18:11:46.409Z,42.65
2019-04-20T18:14:31.430Z,41.92
2019-04-20T18:17:21.471Z,42.87
2019-04-20T18:19:57.037Z,43.11
2019-04-20T18:22:29.996Z,44.07
2019-04-20T18:25:25.776Z,43.85
2019-04-20T18:27:58.646Z,44.72
2019-04-20T18:30:36.327Z,44.41
2019-04-20T18:32:59.429Z,46.19
2019-04-20T18:35:34.831Z,46.86
2019-04-20T18:38:11.383Z,47.84
2019-04-20T18:40:52.633Z,47.96
2019-04-20T18:43:21.923Z,48.27
2019-04-20T18:46:08.061Z,49.72
2019-04-20T18:48:43.599Z,49.51
2019-04-20T18:50:59.710Z,50.54
2019-04-20T18:53:39.425Z,51.78
2019-04-20T18:56:08.136Z,51.65
2019-04-20T18:58:43.012Z,52.88
2019-04-20T19:01:17.059Z,53.15
2019-04-20T19:03:50.976Z,53.82
2019-04-20T19:06:25.618Z,53.83
2019-04-20T19:08:58.970Z,54.30
2019-04-20T19:11:37.540Z,54.17
2019-04-20T19:14:35.532Z,54.52
2019-04-20T19:17:29.056Z,53.99
2019-04-20T19:20:01.397Z,54.52
2019-04-20T19:22:35.485Z,55.39
2019-04-20T19:25:09.994Z,56.14
2019-04-20T19:27:48.572Z,55.87
2019-04-20T19:30:27.611Z,56.51
2019-04-20T19:33:09.101Z,56.56
2019-04-20T19:35:40.668Z,56.39
2019-04-20T19:38:10.503Z,56.12
2019-04-20T19:40:47.855Z,56.59
2019-04-20T19:43:20.588Z,56.44
2019-04-20T19:46:25.004Z,56.67
2019-04-20T19:48:32.111Z,57.30
2019-04-20T19:51:22.503Z,56.52
2019-04-20T19:53:50.714Z,57.76
2019-04-20T19:56:16.661Z,58.67
2019-04-20T19:58:54.205Z,58.43
2019-04-20T20:01:13.601Z,62.41
2019-04-20T20:03:48.290Z,59.49
2019-04-20T20:06:29.342Z,58.48
2019-04-20T20:09:03.084Z,60.13
2019-04-20T20:11:35.337Z,59.32
2019-04-20T20:14:09.782Z,58.33
2019-04-20T20:16:58.929Z,60.21
2019-04-20T20:19:32.498Z,59.27
2019-04-20T20:22:05.539Z,59.97
2019-04-20T20:24:29.146Z,58.25
2019-04-20T20:27:06.211Z,59.36
2019-04-20T20:29:45.256Z,59.60
2019-04-20T20:32:23.440Z,58.29
2019-04-20T20:34:57.152Z,59.96
2019-04-20T20:37:27.155Z,60.81
2019-04-20T20:40:07.776Z,58.63
2019-04-20T20:42:45.779Z,60.36
2019-04-20T20:45:15.766Z,59.10
2019-04-20T20:47:58.940Z,58.88
2019-04-20T20:50:39.446Z,59.46
2019-04-20T20:53:01.155Z,59.56
2019-04-20T20:55:32.207Z,61.15
2019-04-20T20:58:10.132Z,59.28
2019-04-20T21:00:46.093Z,58.63
2019-04-20T21:03:16.730Z,60.41
2019-04-20T21:05:43.639Z,58.06
2019-04-20T21:08:17.567Z,58.03
2019-04-20T21:10:51.058Z,56.73
2019-04-20T21:13:28.427Z,56.63
2019-04-20T21:16:03.953Z,57.31
2019-04-20T21:18:50.236Z,58.23
2019-04-20T21:21:21.914Z,57.70
2019-04-20T21:23:53.350Z,56.29
2019-04-20T21:26:26.010Z,54.67
2019-04-20T21:28:52.323Z,54.21
2019-04-20T21:31:27.876Z,52.85
2019-04-20T21:34:01.721Z,52.51
2019-04-20T21:36:34.897Z,52.46
2019-04-20T21:39:21.859Z,52.52
2019-04-20T21:41:51.295Z,50.07
2019-04-20T21:44:25.250Z,49.38
2019-04-20T21:46:55.027Z,47.69
2019-04-20T21:49:43.627Z,44.26
2019-04-20T21:52:10.641Z,45.44
2019-04-20T21:54:38.258Z,42.48
2019-04-20T21:57:13.229Z,45.98
2019-04-20T21:59:50.441Z,46.39
2019-04-20T22:02:26.407Z,43.96
2019-04-20T22:04:55.590Z,46.10
2019-04-20T22:07:28.814Z,48.63
2019-04-20T22:10:02.424Z,51.63
2019-04-20T22:12:45.435Z,51.83
2019-04-20T22:15:17.891Z,54.70
2019-04-20T22:17:44.774Z,52.65
2019-04-20T22:20:28.842Z,54.67
2019-04-20T22:23:04.507Z,53.93
2019-04-20T22:25:42.644Z,54.58
2019-04-20T22:28:02.383Z,54.05
2019-04-20T22:30:37.843Z,54.61
2019-04-20T22:33:43.194Z,56.58
2019-04-20T22:36:18.076Z,57.23
2019-04-20T22:39:11.859Z,58.76
2019-04-20T22:42:12.948Z,58.60
2019-04-20T22:44:47.983Z,58.97
2019-04-20T22:47:23.090Z,60.21
2019-04-20T22:50:15.129Z,59.81
2019-04-20T22:52:42.707Z,58.59
2019-04-20T22:55:27.843Z,57.58
2019-04-20T22:57:52.388Z,59.57
2019-04-20T23:00:21.793Z,59.90
2019-04-20T23:02:49.090Z,61.64
2019-04-20T23:05:22.785Z,62.62
2019-04-20T23:07:59.784Z,62.97
2019-04-20T23:10:38.674Z,64.28
2019-04-20T23:13:07.438Z,64.46
2019-04-20T23:15:43.337Z,64.58
2019-04-20T23:18:16.005Z,65.67
2019-04-20T23:20:50.081Z,65.89
2019-04-20T23:23:26.087Z,64.86
2019-04-20T23:25:58.872Z,64.82
2019-04-20T23:28:33.258Z,65.05
2019-04-20T23:31:11.912Z,64.85
2019-04-20T23:33:40.639Z,64.60
2019-04-20T23:36:14.646Z,65.39
2019-04-20T23:38:53.805Z,65.43
2019-04-20T23:41:23.730Z,66.20
2019-04-20T23:44:18.983Z,66.99
2019-04-20T23:47:13.581Z,66.53
2019-04-20T23:50:05.669Z,66.68
2019-04-20T23:52:49.674Z,66.23
2019-04-20T23:55:04.978Z,66.74
2019-04-20T23:57:33.838Z,67.35
